Time;durP1;ratioP1;P1;durP2;ratioP2;P2;SDS_P1;SDS_P2;PMS_P1;PMS_P2;Temp;Humidity;BMP_temperature;BMP_pressure;BME280_temperature;BME280_humidity;BME280_pressure;Samples;Min_cycle;Max_cycle;Signal;HPM_P1;HPM_P2
2023/04/11 00:02:05;;;;;;;4.00;2.33;;;;;;;10.09;100.00;100453.56;6277734;28;20049;-77
2023/04/11 00:05:08;;;;;;;4.07;1.92;;;;;;;10.05;100.00;100420.53;6277611;28;20183;-77
2023/04/11 00:08:10;;;;;;;4.18;2.10;;;;;;;10.04;100.00;100410.97;6277319;28;20045;-77
2023/04/11 00:11:11;;;;;;;2.85;1.67;;;;;;;10.00;100.00;100385.81;6277623;28;20045;-77
2023/04/11 00:14:14;;;;;;;3.05;1.70;;;;;;;9.96;100.00;100426.31;6277184;28;20445;-77
2023/04/11 00:17:16;;;;;;;7.22;2.05;;;;;;;9.96;100.00;100423.69;6276758;28;20052;-76
2023/04/11 00:20:19;;;;;;;3.63;1.67;;;;;;;9.97;100.00;100407.00;6277255;28;20088;-76
2023/04/11 00:23:20;;;;;;;2.47;1.52;;;;;;;9.95;100.00;100412.34;6277026;28;20368;-77
2023/04/11 00:26:22;;;;;;;2.20;1.40;;;;;;;9.91;100.00;100414.28;6277280;28;20114;-77
2023/04/11 00:29:23;;;;;;;3.28;1.52;;;;;;;9.84;100.00;100405.03;6277151;28;20453;-77
2023/04/11 00:32:25;;;;;;;1.67;1.20;;;;;;;9.84;100.00;100422.56;6276529;28;20490;-77
2023/04/11 00:35:27;;;;;;;3.10;1.63;;;;;;;9.87;100.00;100433.75;6277052;28;20045;-76
2023/04/11 00:38:29;;;;;;;3.13;1.60;;;;;;;9.86;100.00;100415.47;6276927;28;20044;-76
2023/04/11 00:41:30;;;;;;;3.58;1.90;;;;;;;9.83;100.00;100429.59;6276581;28;20045;-76
2023/04/11 00:44:31;;;;;;;3.28;1.45;;;;;;;9.82;100.00;100425.28;6277005;28;20041;-76
2023/04/11 00:47:34;;;;;;;3.03;1.52;;;;;;;9.82;100.00;100438.41;6276043;28;20468;-76
2023/04/11 00:50:40;;;;;;;3.08;1.60;;;;;;;9.82;100.00;100442.81;6276825;28;20445;-76
2023/04/11 00:53:44;;;;;;;2.53;1.38;;;;;;;9.80;100.00;100450.75;6276125;28;20426;-76
2023/04/11 00:56:45;;;;;;;1.88;1.25;;;;;;;9.81;100.00;100446.34;6276370;28;20403;-76
2023/04/11 00:59:48;;;;;;;2.80;1.23;;;;;;;9.81;100.00;100452.47;6276465;28;20049;-76
2023/04/11 01:02:49;;;;;;;1.50;1.08;;;;;;;9.84;100.00;100441.78;6276020;28;20126;-76
2023/04/11 01:05:53;;;;;;;1.98;1.00;;;;;;;9.81;100.00;100439.34;6276477;28;20464;-76
2023/04/11 01:08:54;;;;;;;3.40;1.15;;;;;;;9.70;100.00;100443.47;6275772;28;20102;-76
2023/04/11 01:11:56;;;;;;;1.80;1.02;;;;;;;9.76;100.00;100435.25;6275856;28;20064;-76
2023/04/11 01:14:58;;;;;;;3.63;1.50;;;;;;;9.66;100.00;100441.00;6275961;28;20076;-76
2023/04/11 01:18:00;;;;;;;2.30;1.05;;;;;;;9.64;100.00;100432.38;6275651;28;20057;-76
2023/04/11 01:21:04;;;;;;;6.22;1.08;;;;;;;9.69;100.00;100442.63;6275833;28;20074;-76
2023/04/11 01:24:07;;;;;;;2.13;0.98;;;;;;;9.64;100.00;100450.75;6275566;28;20364;-75
2023/04/11 01:27:09;;;;;;;2.13;0.80;;;;;;;9.63;100.00;100454.31;6275496;28;20056;-76
2023/04/11 01:30:11;;;;;;;1.27;0.70;;;;;;;9.62;100.00;100449.97;6275198;28;20136;-76
2023/04/11 01:33:15;;;;;;;3.72;1.02;;;;;;;9.68;100.00;100443.56;6275478;28;20122;-76
2023/04/11 01:36:16;;;;;;;1.27;0.65;;;;;;;9.68;100.00;100425.22;6267495;28;20593;-76
2023/04/11 01:39:19;;;;;;;1.13;0.70;;;;;;;9.60;100.00;100425.63;6268176;28;20049;-76
2023/04/11 01:42:22;;;;;;;2.13;0.82;;;;;;;9.63;100.00;100433.34;6275281;28;20131;-75
2023/04/11 01:45:25;;;;;;;1.10;0.82;;;;;;;9.59;100.00;100423.09;6275513;28;20045;-76
2023/04/11 01:48:26;;;;;;;4.22;0.90;;;;;;;9.53;100.00;100420.78;6270308;28;20048;-76
2023/04/11 01:51:28;;;;;;;0.88;0.77;;;;;;;9.45;100.00;100426.47;6275248;28;20354;-75
2023/04/11 01:54:30;;;;;;;1.45;0.70;;;;;;;9.47;100.00;100424.59;6275152;28;20136;-76
2023/04/11 01:57:32;;;;;;;4.20;1.60;;;;;;;9.47;100.00;100431.59;6274930;28;20041;-76
2023/04/11 02:00:35;;;;;;;4.03;0.80;;;;;;;9.47;100.00;100423.75;6275127;28;20357;-76
2023/04/11 02:03:37;;;;;;;2.35;0.93;;;;;;;9.51;100.00;100428.75;6275221;28;20090;-75
2023/04/11 02:06:38;;;;;;;0.95;0.77;;;;;;;9.47;100.00;100429.81;6274608;28;20041;-75
2023/04/11 02:09:41;;;;;;;0.68;0.68;;;;;;;9.54;100.00;100406.75;6274967;28;20052;-75
2023/04/11 02:12:42;;;;;;;0.90;0.77;;;;;;;9.57;100.00;100410.03;6274982;28;20045;-76
2023/04/11 02:15:43;;;;;;;0.98;0.65;;;;;;;9.54;100.00;100404.13;6274344;28;20052;-76
2023/04/11 02:18:45;;;;;;;3.03;0.70;;;;;;;9.50;100.00;100406.06;6273865;28;20044;-76
2023/04/11 02:21:47;;;;;;;2.58;1.05;;;;;;;9.38;100.00;100488.84;6274421;28;20056;-76
2023/04/11 02:24:50;;;;;;;8.63;1.27;;;;;;;8.60;100.00;100515.56;6274504;28;20052;-80
2023/04/11 02:27:52;;;;;;;1.58;0.40;;;;;;;7.44;100.00;100508.69;6274447;28;20126;-77
2023/04/11 02:30:54;;;;;;;8.10;0.73;;;;;;;7.10;100.00;100506.72;6274697;28;20051;-79
2023/04/11 02:33:55;;;;;;;0.30;0.30;;;;;;;6.94;100.00;100498.66;6273861;28;20393;-78
2023/04/11 02:36:57;;;;;;;2.35;0.50;;;;;;;6.91;100.00;100480.53;6274805;28;20429;-78
2023/04/11 02:40:00;;;;;;;0.38;0.30;;;;;;;7.00;100.00;100467.09;6264405;28;20053;-78
2023/04/11 02:43:01;;;;;;;0.70;0.30;;;;;;;6.95;100.00;100479.50;6275241;28;20053;-77
2023/04/11 02:46:02;;;;;;;0.55;0.20;;;;;;;6.79;100.00;100468.84;6278639;28;20056;-77
2023/04/11 02:49:04;;;;;;;0.13;0.13;;;;;;;6.77;100.00;100473.28;6279396;28;20045;-78
2023/04/11 02:52:05;;;;;;;0.77;0.40;;;;;;;6.80;100.00;100483.59;6279664;28;20049;-77
2023/04/11 02:55:09;;;;;;;0.73;0.30;;;;;;;6.93;100.00;100486.53;6278834;28;20054;-78
2023/04/11 02:58:16;;;;;;;1.65;0.57;;;;;;;6.90;100.00;100477.97;6279221;28;20041;-78
2023/04/11 03:01:20;;;;;;;3.92;1.10;;;;;;;6.92;100.00;100448.28;6279359;28;20076;-78
2023/04/11 03:04:21;;;;;;;0.85;0.30;;;;;;;6.98;100.00;100415.81;6279096;28;20049;-77
2023/04/11 03:07:23;;;;;;;1.00;0.60;;;;;;;7.01;100.00;100419.13;6278823;28;20048;-77
2023/04/11 03:10:26;;;;;;;1.20;0.77;;;;;;;7.11;100.00;100411.75;6279137;28;20433;-77
2023/04/11 03:13:28;;;;;;;0.52;0.50;;;;;;;7.15;100.00;100408.06;6278562;28;20040;-77
2023/04/11 03:16:29;;;;;;;0.73;0.57;;;;;;;7.19;100.00;100414.88;6278706;28;20048;-77
2023/04/11 03:19:30;;;;;;;1.58;0.43;;;;;;;7.28;100.00;100411.84;6278479;28;20041;-77
2023/04/11 03:22:32;;;;;;;0.45;0.40;;;;;;;7.34;100.00;100410.72;6278970;28;20045;-77
2023/04/11 03:25:36;;;;;;;3.00;0.47;;;;;;;7.32;100.00;100408.16;6278584;28;20049;-77
2023/04/11 03:28:37;;;;;;;0.20;0.20;;;;;;;7.32;100.00;100412.56;6278380;28;20098;-77
2023/04/11 03:31:39;;;;;;;5.88;0.75;;;;;;;7.30;100.00;100417.81;6278388;28;20461;-77
2023/04/11 03:34:40;;;;;;;0.60;0.40;;;;;;;7.26;100.00;100420.66;6278429;28;20468;-77
2023/04/11 03:37:41;;;;;;;0.98;0.63;;;;;;;7.22;100.00;100417.34;6277053;28;20041;-77
2023/04/11 03:40:44;;;;;;;10.77;0.80;;;;;;;7.19;100.00;100417.47;6264848;28;20566;-77
2023/04/11 03:43:46;;;;;;;3.08;0.80;;;;;;;7.11;100.00;100412.59;6264034;28;20662;-77
2023/04/11 03:46:47;;;;;;;0.82;0.50;;;;;;;7.08;100.00;100417.09;6264146;28;20056;-77
2023/04/11 03:49:48;;;;;;;0.73;0.40;;;;;;;7.03;100.00;100412.06;6263890;28;20055;-77
2023/04/11 03:52:50;;;;;;;2.92;0.60;;;;;;;6.99;100.00;100418.34;6263302;28;20056;-77
2023/04/11 03:55:53;;;;;;;1.90;0.52;;;;;;;6.99;100.00;100420.94;6268991;28;20040;-77
2023/04/11 03:58:54;;;;;;;4.05;0.70;;;;;;;6.99;100.00;100420.94;6266356;28;20056;-77
2023/04/11 04:01:55;;;;;;;2.72;0.60;;;;;;;6.98;100.00;100419.25;6262100;28;20064;-77
2023/04/11 04:04:58;;;;;;;1.33;1.05;;;;;;;7.02;100.00;100417.38;6266272;28;20040;-77
2023/04/11 04:07:59;;;;;;;6.43;0.57;;;;;;;6.95;100.00;100421.16;6263129;28;20048;-77
2023/04/11 04:11:02;;;;;;;2.50;0.60;;;;;;;6.86;100.00;100423.28;6267087;28;20042;-77
2023/04/11 04:14:03;;;;;;;0.60;0.50;;;;;;;6.87;100.00;100426.72;6257998;28;20059;-77
2023/04/11 04:17:05;;;;;;;0.38;0.38;;;;;;;6.85;100.00;100423.31;6264316;28;20695;-77
2023/04/11 04:20:09;;;;;;;3.13;0.60;;;;;;;6.88;100.00;100424.97;6266652;28;20049;-77
2023/04/11 04:23:13;;;;;;;0.95;0.70;;;;;;;6.84;100.00;100427.69;6261779;28;20052;-77
2023/04/11 04:26:15;;;;;;;4.32;0.70;;;;;;;6.84;100.00;100427.69;6262271;28;20586;-77
2023/04/11 04:29:17;;;;;;;1.45;0.70;;;;;;;6.75;100.00;100425.47;6265136;28;20053;-76
2023/04/11 04:32:21;;;;;;;3.30;0.98;;;;;;;6.75;100.00;100433.31;6263628;28;20048;-77
2023/04/11 04:35:23;;;;;;;4.45;1.40;;;;;;;6.77;100.00;100434.13;6263021;28;20706;-77
2023/04/11 04:38:24;;;;;;;2.92;0.88;;;;;;;6.76;100.00;100435.00;6270142;28;20049;-77
2023/04/11 04:41:32;;;;;;;1.42;0.73;;;;;;;6.75;100.00;100428.09;6277248;28;20090;-77
2023/04/11 04:44:34;;;;;;;1.40;0.80;;;;;;;6.72;100.00;100433.47;6276935;28;20488;-77
2023/04/11 04:47:37;;;;;;;5.95;1.10;;;;;;;6.73;100.00;100435.16;6276032;28;20045;-77
2023/04/11 04:50:38;;;;;;;3.20;1.17;;;;;;;6.73;100.00;100437.78;6276693;28;20064;-77
2023/04/11 04:53:40;;;;;;;3.22;1.20;;;;;;;6.76;100.00;100444.59;6276862;28;20055;-77
2023/04/11 04:56:42;;;;;;;2.17;1.05;;;;;;;6.67;100.00;100438.00;6276451;28;20064;-77
2023/04/11 04:59:44;;;;;;;2.38;1.10;;;;;;;6.70;100.00;100444.88;6276272;28;20093;-77
2023/04/11 05:02:46;;;;;;;1.23;1.00;;;;;;;6.68;100.00;100437.13;6276566;28;20041;-77
2023/04/11 05:05:48;;;;;;;3.15;1.00;;;;;;;6.63;100.00;100438.19;6275291;28;20045;-77
2023/04/11 05:08:49;;;;;;;2.20;1.20;;;;;;;6.74;100.00;100443.84;6276105;28;20041;-76
2023/04/11 05:11:52;;;;;;;2.40;0.75;;;;;;;6.71;100.00;100436.13;6276065;28;20059;-77
2023/04/11 05:14:55;;;;;;;3.40;1.02;;;;;;;6.84;100.00;100445.13;6276229;28;20052;-76
2023/04/11 05:17:57;;;;;;;3.70;1.10;;;;;;;6.80;100.00;100443.56;6275469;28;20059;-76
2023/04/11 05:20:58;;;;;;;8.55;1.70;;;;;;;6.96;100.00;100441.16;6276119;28;20126;-76
2023/04/11 05:23:59;;;;;;;6.75;1.33;;;;;;;6.95;100.00;100437.69;6275676;28;20060;-76
2023/04/11 05:27:02;;;;;;;7.30;2.83;;;;;;;7.06;100.00;100443.28;6275899;28;20060;-76
2023/04/11 05:30:05;;;;;;;5.82;1.30;;;;;;;7.06;100.00;100437.22;6267838;28;20044;-76
2023/04/11 05:33:06;;;;;;;3.40;1.20;;;;;;;7.10;100.00;100450.09;6275412;28;20136;-76
2023/04/11 05:36:12;;;;;;;5.88;1.85;;;;;;;7.17;100.00;100455.88;6275743;28;20070;-76
2023/04/11 05:39:13;;;;;;;5.88;0.98;;;;;;;7.23;100.00;100458.25;6275465;28;20047;-76
2023/04/11 05:42:17;;;;;;;4.60;1.50;;;;;;;7.29;100.00;100459.72;6275610;28;20049;-75
2023/04/11 05:45:19;;;;;;;3.50;1.08;;;;;;;7.32;100.00;100460.44;6275103;28;20048;-75
2023/04/11 05:48:21;;;;;;;13.32;1.15;;;;;;;7.30;100.00;100466.66;6274924;28;20052;-75
2023/04/11 05:51:23;;;;;;;2.25;1.00;;;;;;;7.35;100.00;100477.75;6274827;28;20049;-75
2023/04/11 05:54:32;;;;;;;2.25;0.85;;;;;;;7.37;100.00;100476.78;6274569;28;20055;-76
2023/04/11 05:57:35;;;;;;;2.25;0.88;;;;;;;7.38;100.00;100486.31;6274812;28;20090;-75
2023/04/11 06:00:37;;;;;;;5.03;1.33;;;;;;;7.42;100.00;100492.25;6275400;28;20045;-76
2023/04/11 06:03:38;;;;;;;4.82;0.63;;;;;;;7.44;100.00;100502.63;6275167;28;20056;-76
2023/04/11 06:06:40;;;;;;;2.65;0.70;;;;;;;7.50;100.00;100491.91;6274845;28;20075;-76
2023/04/11 06:09:41;;;;;;;3.22;1.17;;;;;;;7.46;100.00;100506.88;6271716;28;20172;-76
2023/04/11 06:12:44;;;;;;;4.88;0.77;;;;;;;7.27;100.00;100498.16;6274426;28;20045;-75
2023/04/11 06:15:46;;;;;;;2.67;0.90;;;;;;;7.33;100.00;100500.50;6273519;28;20541;-76
2023/04/11 06:18:47;;;;;;;6.63;1.20;;;;;;;7.37;100.00;100504.69;6274233;28;20053;-77
2023/04/11 06:21:48;;;;;;;2.80;0.95;;;;;;;7.33;100.00;100503.13;6274571;28;20052;-76
2023/04/11 06:24:50;;;;;;;4.88;1.20;;;;;;;7.35;100.00;100502.13;6274156;28;20045;-76
2023/04/11 06:27:52;;;;;;;2.75;0.68;;;;;;;7.40;100.00;100499.28;6274106;28;20456;-75
2023/04/11 06:30:54;;;;;;;5.13;1.23;;;;;;;7.49;100.00;100509.34;6274773;28;20491;-76
2023/04/11 06:33:55;;;;;;;1.45;0.80;;;;;;;7.54;100.00;100501.28;6275005;28;20061;-76
2023/04/11 06:36:57;;;;;;;7.68;1.33;;;;;;;7.63;100.00;100512.22;6264522;28;20060;-77
2023/04/11 06:39:58;;;;;;;4.80;0.93;;;;;;;7.50;100.00;100505.84;6257147;28;20052;-77
2023/04/11 06:43:02;;;;;;;3.70;0.90;;;;;;;7.56;100.00;100523.00;6264699;28;20041;-72
2023/04/11 06:46:03;;;;;;;3.72;0.73;;;;;;;7.59;100.00;100512.44;6256309;28;20053;-76
2023/04/11 06:49:06;;;;;;;3.92;1.42;;;;;;;7.58;100.00;100523.78;6271397;28;20041;-76
2023/04/11 06:52:07;;;;;;;3.88;1.67;;;;;;;7.62;100.00;100533.19;6274387;28;20063;-76
2023/04/11 06:55:10;;;;;;;1.75;1.15;;;;;;;7.67;100.00;100528.59;6274356;28;20045;-76
2023/04/11 06:58:13;;;;;;;5.15;1.23;;;;;;;7.61;100.00;100536.72;6266671;28;20448;-75
2023/04/11 07:01:15;;;;;;;2.03;0.90;;;;;;;7.71;100.00;100527.53;6273949;28;20319;-76
2023/04/11 07:04:16;;;;;;;3.05;0.95;;;;;;;7.69;100.00;100532.00;6273339;28;20049;-75
2023/04/11 07:07:17;;;;;;;4.32;1.10;;;;;;;7.65;100.00;100540.91;6267562;28;20060;-76
2023/04/11 07:10:19;;;;;;;4.40;1.17;;;;;;;7.54;100.00;100538.78;6273857;28;20049;-76
2023/04/11 07:13:22;;;;;;;6.07;1.00;;;;;;;7.49;100.00;100540.72;6262672;28;20046;-76
2023/04/11 07:16:24;;;;;;;3.85;0.93;;;;;;;7.51;100.00;100549.38;6265593;28;20052;-76
2023/04/11 07:19:25;;;;;;;1.35;0.80;;;;;;;7.55;100.00;100547.47;6262826;28;20037;-76
2023/04/11 07:22:28;;;;;;;6.65;0.73;;;;;;;7.58;100.00;100540.31;6262852;28;20067;-76
2023/04/11 07:25:32;;;;;;;3.08;0.95;;;;;;;7.69;100.00;100552.94;6274156;28;20045;-76
2023/04/11 07:28:36;;;;;;;4.20;1.30;;;;;;;7.74;100.00;100555.34;6270142;28;20045;-75
2023/04/11 07:31:37;;;;;;;3.90;1.23;;;;;;;7.80;100.00;100555.91;6278168;28;20342;-76
2023/04/11 07:34:39;;;;;;;1.83;0.95;;;;;;;7.81;100.00;100557.63;6278179;28;20060;-76
2023/04/11 07:37:41;;;;;;;3.28;1.27;;;;;;;7.92;100.00;100554.53;6274493;28;20045;-76
2023/04/11 07:40:43;;;;;;;4.88;1.85;;;;;;;7.98;100.00;100556.00;6277428;28;20161;-75
2023/04/11 07:43:45;;;;;;;14.52;3.38;;;;;;;7.97;100.00;100556.94;6277894;28;20051;-77
2023/04/11 07:46:47;;;;;;;1.65;1.27;;;;;;;8.16;100.00;100549.06;6275611;28;20049;-77
2023/04/11 07:49:49;;;;;;;5.38;1.20;;;;;;;8.27;100.00;100559.91;6274893;28;20041;-76
2023/04/11 07:52:51;;;;;;;5.95;1.52;;;;;;;8.36;100.00;100569.94;6276345;28;20049;-77
2023/04/11 07:55:52;;;;;;;4.78;0.85;;;;;;;8.37;100.00;100569.06;6278008;28;20052;-78
2023/04/11 07:58:55;;;;;;;5.63;1.20;;;;;;;8.27;100.00;100567.75;6273422;28;20048;-75
2023/04/11 08:02:02;;;;;;;4.72;0.90;;;;;;;8.28;100.00;100572.91;6278007;28;20056;-76
2023/04/11 08:05:03;;;;;;;6.43;1.10;;;;;;;8.28;100.00;100572.91;6277705;28;20369;-77
2023/04/11 08:08:05;;;;;;;1.42;0.90;;;;;;;8.34;100.00;100577.84;6277421;28;20396;-76
2023/04/11 08:11:07;;;;;;;3.60;1.17;;;;;;;8.31;100.00;100582.38;6277601;28;20060;-77
2023/04/11 08:14:10;;;;;;;5.55;1.08;;;;;;;8.34;100.00;100587.47;6277799;28;20048;-76
2023/04/11 08:17:13;;;;;;;3.15;1.10;;;;;;;8.36;100.00;100607.47;6276897;28;20074;-76
2023/04/11 08:20:16;;;;;;;5.38;1.65;;;;;;;8.45;100.00;100595.72;6276929;28;20132;-77
2023/04/11 08:23:18;;;;;;;6.18;1.85;;;;;;;8.48;100.00;100603.44;6274295;28;20196;-78
2023/04/11 08:26:20;;;;;;;9.65;1.10;;;;;;;8.54;100.00;100602.28;6273111;28;20052;-76
2023/04/11 08:29:22;;;;;;;2.80;1.02;;;;;;;8.63;100.00;100599.25;6275999;28;20073;-76
2023/04/11 08:32:24;;;;;;;0.90;0.80;;;;;;;8.70;100.00;100589.31;6276533;28;20056;-76
2023/04/11 08:35:25;;;;;;;4.75;1.25;;;;;;;8.83;100.00;100614.00;6276548;28;20452;-76
2023/04/11 08:38:27;;;;;;;5.32;1.35;;;;;;;8.93;100.00;100598.69;6273213;28;20045;-77
2023/04/11 08:41:30;;;;;;;3.08;0.85;;;;;;;8.97;100.00;100593.22;6276651;28;20049;-76
2023/04/11 08:44:33;;;;;;;3.95;1.27;;;;;;;8.95;100.00;100623.03;6276297;28;20489;-76
2023/04/11 08:47:35;;;;;;;1.20;1.10;;;;;;;8.98;100.00;100608.00;6275931;28;20052;-76
2023/04/11 08:50:36;;;;;;;5.32;1.00;;;;;;;8.93;100.00;100617.88;6276227;28;20182;-75
2023/04/11 08:53:39;;;;;;;1.40;0.90;;;;;;;8.92;100.00;100621.44;6276073;28;20053;-76
2023/04/11 08:56:41;;;;;;;4.95;1.25;;;;;;;8.86;100.00;100614.72;6275958;28;20460;-74
2023/04/11 08:59:50;;;;;;;3.53;1.60;;;;;;;8.88;100.00;100625.13;6275905;28;20040;-75
2023/04/11 09:02:59;;;;;;;2.20;0.95;;;;;;;8.95;100.00;100623.91;6274264;28;20053;-76
2023/04/11 09:06:09;;;;;;;7.80;1.40;;;;;;;8.90;100.00;100620.63;6276063;28;20041;-76
2023/04/11 09:09:28;;;;;;;2.45;1.65;;;;;;;8.87;100.00;100641.78;6275369;28;20214;-75
2023/04/11 09:12:30;;;;;;;2.83;1.30;;;;;;;8.85;100.00;100664.56;6265152;28;20045;-75
2023/04/11 09:15:32;;;;;;;3.97;0.95;;;;;;;8.63;100.00;100641.16;6273804;28;20130;-75
2023/04/11 09:18:35;;;;;;;3.60;0.80;;;;;;;8.42;100.00;100640.38;6272116;28;20457;-75
2023/04/11 09:21:48;;;;;;;1.35;0.70;;;;;;;8.31;100.00;100640.84;6262051;28;20044;-76
2023/04/11 09:25:02;;;;;;;0.93;0.52;;;;;;;8.34;100.00;100651.16;6276007;28;20064;-75
2023/04/11 09:28:07;;;;;;;1.75;0.85;;;;;;;8.37;100.00;100647.59;6275476;28;20091;-76
2023/04/11 09:31:11;;;;;;;1.80;0.75;;;;;;;8.41;100.00;100640.47;6275094;28;20045;-75
2023/04/11 09:34:13;;;;;;;1.77;0.80;;;;;;;8.40;100.00;100644.81;6275654;28;20122;-75
2023/04/11 09:37:14;;;;;;;1.33;1.23;;;;;;;8.41;100.00;100648.31;6275471;28;20044;-75
2023/04/11 09:40:17;;;;;;;11.38;1.05;;;;;;;8.59;100.00;100639.63;6275519;28;20045;-75
2023/04/11 09:43:19;;;;;;;3.53;1.17;;;;;;;8.82;100.00;100635.91;6275866;28;20045;-76
2023/04/11 09:46:22;;;;;;;1.27;1.15;;;;;;;9.00;100.00;100644.66;6275297;28;20122;-76
2023/04/11 09:49:23;;;;;;;2.13;1.00;;;;;;;9.19;100.00;100634.97;6275238;28;20044;-75
2023/04/11 09:52:26;;;;;;;0.80;0.80;;;;;;;9.42;100.00;100644.31;6274772;28;20048;-73
2023/04/11 09:55:27;;;;;;;4.10;1.00;;;;;;;9.47;100.00;100657.19;6274965;28;20055;-76
2023/04/11 09:58:31;;;;;;;1.25;0.75;;;;;;;9.50;100.00;100665.75;6274780;28;20056;-76
2023/04/11 10:01:35;;;;;;;2.15;0.82;;;;;;;9.49;100.00;100652.69;6274438;28;20041;-76
2023/04/11 10:04:37;;;;;;;1.95;0.85;;;;;;;9.62;100.00;100651.16;6274861;28;20049;-76
2023/04/11 10:07:46;;;;;;;4.15;1.15;;;;;;;9.77;100.00;100660.03;6274325;28;20090;-76
2023/04/11 10:10:47;;;;;;;3.95;1.05;;;;;;;9.79;100.00;100656.38;6272591;28;20045;-77
2023/04/11 10:13:49;;;;;;;3.55;1.02;;;;;;;9.81;100.00;100657.19;6274457;28;20053;-78
2023/04/11 10:17:13;;;;;;;2.10;0.90;;;;;;;9.93;100.00;100657.47;6274145;28;20056;-77
2023/04/11 10:20:42;;;;;;;4.53;1.42;;;;;;;9.88;100.00;100668.19;6273753;28;20122;-76
2023/04/11 10:24:08;;;;;;;3.13;1.33;;;;;;;9.76;100.00;100679.31;6272199;28;20052;-78
2023/04/11 10:27:10;;;;;;;0.57;0.47;;;;;;;9.63;100.00;100681.72;6272702;28;20045;-78
2023/04/11 10:30:12;;;;;;;0.88;0.50;;;;;;;9.60;100.00;100687.13;6274290;28;20049;-77
2023/04/11 10:33:16;;;;;;;2.28;0.70;;;;;;;9.69;100.00;100693.69;6274497;28;20045;-78
2023/04/11 10:36:17;;;;;;;1.50;0.80;;;;;;;9.90;100.00;100696.06;6274194;28;20049;-77
2023/04/11 10:39:59;;;;;;;0.90;0.60;;;;;;;9.72;100.00;100706.63;6273844;28;20048;-78
2023/04/11 10:43:19;;;;;;;1.05;0.68;;;;;;;9.67;100.00;100699.00;6274059;28;20052;-81
2023/04/11 10:46:22;;;;;;;2.00;0.52;;;;;;;9.57;100.00;100690.75;6273267;28;20049;-77
2023/04/11 10:49:35;;;;;;;0.40;0.40;;;;;;;9.54;100.00;100696.16;6273959;28;20053;-77
2023/04/11 10:52:37;;;;;;;2.75;1.33;;;;;;;9.54;100.00;100682.19;6272000;28;20367;-77
2023/04/11 10:55:44;;;;;;;4.00;0.80;;;;;;;9.51;100.00;100698.06;6274028;28;20128;-77
2023/04/11 10:58:48;;;;;;;4.88;1.00;;;;;;;9.69;100.00;100689.28;6273969;28;20056;-77
2023/04/11 11:01:54;;;;;;;4.70;0.90;;;;;;;9.80;100.00;100688.72;6272777;28;20045;-77
2023/04/11 11:04:56;;;;;;;4.97;0.70;;;;;;;9.89;100.00;100696.13;6278676;28;20194;-78
2023/04/11 11:07:57;;;;;;;1.20;0.75;;;;;;;10.03;100.00;100703.28;6278441;28;20063;-77
2023/04/11 11:11:01;;;;;;;2.72;1.00;;;;;;;10.21;100.00;100691.84;6278530;28;20051;-76
2023/04/11 11:14:03;;;;;;;2.72;0.75;;;;;;;10.47;100.00;100687.84;6277710;28;20063;-77
2023/04/11 11:17:05;;;;;;;4.05;0.80;;;;;;;10.74;100.00;100679.41;6278241;28;20045;-77
2023/04/11 11:20:15;;;;;;;0.57;0.47;;;;;;;10.76;100.00;100694.16;6278651;28;20130;-77
2023/04/11 11:23:17;;;;;;;3.10;1.50;;;;;;;10.59;100.00;100710.84;6276846;28;20045;-77
2023/04/11 11:26:18;;;;;;;5.25;1.00;;;;;;;10.41;100.00;100698.72;6278151;28;20140;-77
2023/04/11 11:29:32;;;;;;;0.60;0.60;;;;;;;10.33;100.00;100706.13;6278074;28;20072;-78
2023/04/11 11:32:33;;;;;;;1.00;0.68;;;;;;;10.36;100.00;100714.72;6276437;28;20048;-77
2023/04/11 11:35:35;;;;;;;1.60;0.70;;;;;;;10.22;100.00;100740.81;6278102;28;20052;-77
2023/04/11 11:38:37;;;;;;;1.58;0.82;;;;;;;9.84;100.00;100767.22;6278003;28;20433;-81
2023/04/11 11:41:40;;;;;;;2.03;1.10;;;;;;;8.27;100.00;100762.34;6278091;28;20044;-80
2023/04/11 11:44:42;;;;;;;3.95;1.00;;;;;;;7.66;100.00;100764.06;6278311;28;20455;-79
2023/04/11 11:47:45;;;;;;;1.45;0.88;;;;;;;7.61;100.00;100764.25;6278224;28;20041;-78
2023/04/11 11:50:46;;;;;;;1.30;0.90;;;;;;;7.66;100.00;100762.28;6278357;28;20045;-79
2023/04/11 11:54:02;;;;;;;5.18;1.38;;;;;;;7.76;100.00;100774.06;6277871;28;20052;-79
2023/04/11 11:57:03;;;;;;;6.80;1.88;;;;;;;7.87;100.00;100773.66;6269972;28;20131;-78
2023/04/11 12:00:09;;;;;;;4.28;1.50;;;;;;;8.01;100.00;100804.47;6268833;28;20052;-79
2023/04/11 12:03:10;;;;;;;0.73;0.50;;;;;;;7.83;100.00;100814.78;6267957;28;20061;-80
2023/04/11 12:06:12;;;;;;;0.57;0.57;;;;;;;7.67;100.00;100808.47;6267600;28;20046;-81
2023/04/11 12:09:14;;;;;;;1.02;0.57;;;;;;;7.33;100.00;100801.97;6262555;28;20045;-79
2023/04/11 12:12:16;;;;;;;2.30;0.73;;;;;;;7.18;100.00;100805.19;6260273;28;20445;-80
2023/04/11 12:15:21;;;;;;;2.88;0.98;;;;;;;7.20;100.00;100799.88;6276143;28;20126;-80
2023/04/11 12:18:22;;;;;;;1.80;0.73;;;;;;;7.29;100.00;100803.00;6274143;28;20053;-75
2023/04/11 12:21:24;;;;;;;2.10;1.05;;;;;;;7.44;100.00;100790.22;6277556;28;20048;-81
2023/04/11 12:24:25;;;;;;;4.32;0.90;;;;;;;7.65;100.00;100799.84;6274524;28;20052;-79
2023/04/11 12:27:27;;;;;;;1.60;1.08;;;;;;;8.04;100.00;100799.97;6276735;28;20049;-80
2023/04/11 12:30:29;;;;;;;7.32;1.20;;;;;;;8.47;100.00;100786.81;6276754;28;20037;-81
2023/04/11 12:33:31;;;;;;;3.88;1.35;;;;;;;8.87;100.00;100788.53;6275416;28;20052;-81
2023/04/11 12:36:35;;;;;;;6.53;1.40;;;;;;;9.30;100.00;100783.88;6276676;28;20045;-82
2023/04/11 12:39:37;;;;;;;3.22;0.95;;;;;;;9.65;100.00;100788.28;6275366;28;20052;-80
2023/04/11 12:42:39;;;;;;;2.55;1.08;;;;;;;9.93;100.00;100784.31;6276596;28;20044;-81
2023/04/11 12:45:42;;;;;;;1.48;1.10;;;;;;;10.25;100.00;100780.06;6276246;28;20352;-81
2023/04/11 12:48:43;;;;;;;2.85;1.20;;;;;;;10.56;100.00;100783.75;6274934;28;20048;-81
2023/04/11 12:51:45;;;;;;;4.03;1.33;;;;;;;10.90;100.00;100780.16;6273673;28;20052;-80
2023/04/11 12:54:46;;;;;;;1.35;0.47;;;;;;;11.29;100.00;100798.16;6275947;28;20049;-80
2023/04/11 12:57:48;;;;;;;3.47;1.15;;;;;;;10.84;100.00;100783.97;6275962;28;20508;-80
2023/04/11 13:00:50;;;;;;;2.45;1.17;;;;;;;10.38;100.00;100806.56;6275872;28;20438;-81
2023/04/11 13:03:52;;;;;;;3.33;0.80;;;;;;;10.12;100.00;100813.09;6276538;28;20060;-79
2023/04/11 13:06:53;;;;;;;2.85;1.40;;;;;;;9.96;100.00;100820.06;6276361;28;20057;-79
2023/04/11 13:09:54;;;;;;;2.72;0.88;;;;;;;9.62;100.00;100814.66;6275956;28;20091;-79
2023/04/11 13:12:56;;;;;;;3.45;1.23;;;;;;;9.24;100.00;100818.28;6272629;28;20045;-79
2023/04/11 13:15:58;;;;;;;2.97;0.90;;;;;;;9.04;100.00;100814.81;6276027;28;20045;-79
2023/04/11 13:19:00;;;;;;;2.30;1.15;;;;;;;9.03;100.00;100820.94;6275732;28;20049;-78
2023/04/11 13:22:01;;;;;;;1.58;1.00;;;;;;;9.14;100.00;100818.69;6276256;28;20052;-79
2023/04/11 13:25:03;;;;;;;4.32;1.35;;;;;;;9.79;100.00;100841.88;6267415;28;20052;-81
2023/04/11 13:28:05;;;;;;;1.98;0.80;;;;;;;10.34;100.00;100833.91;6273862;28;20055;-78
2023/04/11 13:31:09;;;;;;;0.82;0.43;;;;;;;10.65;100.00;100841.91;6275327;28;20207;-77
2023/04/11 13:34:10;;;;;;;2.80;0.68;;;;;;;10.44;100.00;100836.91;6275773;28;20049;-79
2023/04/11 13:37:11;;;;;;;2.05;0.70;;;;;;;10.24;100.00;100848.41;6263422;28;20045;-77
2023/04/11 13:40:14;;;;;;;1.25;0.40;;;;;;;10.07;100.00;100852.72;6270848;28;20041;-78
2023/04/11 13:43:16;;;;;;;1.58;0.63;;;;;;;9.91;100.00;100849.16;6275829;28;20045;-78
2023/04/11 13:46:20;;;;;;;0.47;0.47;;;;;;;9.86;100.00;100869.53;6267315;28;20052;-79
2023/04/11 13:49:21;;;;;;;1.23;0.60;;;;;;;9.89;100.00;100879.88;6275494;28;20064;-78
2023/04/11 13:52:23;;;;;;;0.30;0.30;;;;;;;10.11;100.00;100864.78;6275332;28;20568;-79
2023/04/11 13:55:24;;;;;;;0.40;0.40;;;;;;;10.67;100.00;100865.47;6272276;28;20056;-79
2023/04/11 13:58:25;;;;;;;4.22;0.47;;;;;;;10.72;100.00;100860.00;6275577;28;20045;-77
2023/04/11 14:01:28;;;;;;;3.83;0.57;;;;;;;11.03;100.00;100867.97;6275317;28;20041;-79
2023/04/11 14:04:30;;;;;;;0.85;0.40;;;;;;;11.26;100.00;100881.66;6275044;28;20048;-80
2023/04/11 14:07:31;;;;;;;1.23;0.40;;;;;;;10.99;100.00;100878.72;6274902;28;20045;-79
2023/04/11 14:10:33;;;;;;;0.47;0.40;;;;;;;10.92;100.00;100899.25;6272131;28;20064;-78